sensor_id;sensor_type;location;lat;lon;timestamp;pressure;altitude;pressure_sealevel;temperature;humidity
79645;BME280;69117;47.148;18.954;2024-02-28T00:01:29;100405.22;;;10.21;100.00
79645;BME280;69117;47.148;18.954;2024-02-28T00:04:31;100406.50;;;10.17;100.00
79645;BME280;69117;47.148;18.954;2024-02-28T00:07:32;100396.75;;;10.07;100.00
79645;BME280;69117;47.148;18.954;2024-02-28T00:10:34;100396.91;;;10.06;100.00
79645;BME280;69117;47.148;18.954;2024-02-28T00:13:36;100409.41;;;10.04;100.00
79645;BME280;69117;47.148;18.954;2024-02-28T00:16:41;100406.22;;;10.00;100.00
79645;BME280;69117;47.148;18.954;2024-02-28T00:19:43;100398.84;;;9.94;100.00
79645;BME280;69117;47.148;18.954;2024-02-28T00:22:44;100391.22;;;9.91;100.00
79645;BME280;69117;47.148;18.954;2024-02-28T00:25:46;100398.03;;;9.94;100.00
79645;BME280;69117;47.148;18.954;2024-02-28T00:28:48;100394.56;;;9.93;100.00
79645;BME280;69117;47.148;18.954;2024-02-28T00:31:50;100393.72;;;9.93;100.00
79645;BME280;69117;47.148;18.954;2024-02-28T00:34:51;100381.91;;;9.87;100.00
79645;BME280;69117;47.148;18.954;2024-02-28T00:37:53;100392.75;;;9.94;100.00
79645;BME280;69117;47.148;18.954;2024-02-28T00:40:54;100386.22;;;9.88;100.00
79645;BME280;69117;47.148;18.954;2024-02-28T00:43:56;100387.59;;;9.92;100.00
79645;BME280;69117;47.148;18.954;2024-02-28T00:46:58;100398.31;;;9.91;100.00
79645;BME280;69117;47.148;18.954;2024-02-28T00:49:59;100391.38;;;9.90;100.00
79645;BME280;69117;47.148;18.954;2024-02-28T00:53:01;100396.50;;;9.91;100.00
79645;BME280;69117;47.148;18.954;2024-02-28T00:56:04;100401.22;;;9.88;100.00
79645;BME280;69117;47.148;18.954;2024-02-28T00:59:06;100395.66;;;9.81;100.00
79645;BME280;69117;47.148;18.954;2024-02-28T01:02:08;100402.59;;;9.82;100.00
79645;BME280;69117;47.148;18.954;2024-02-28T01:05:09;100403.72;;;9.79;100.00
79645;BME280;69117;47.148;18.954;2024-02-28T01:08:11;100397.88;;;9.76;100.00
79645;BME280;69117;47.148;18.954;2024-02-28T01:11:13;100401.50;;;9.75;100.00
79645;BME280;69117;47.148;18.954;2024-02-28T01:14:15;100398.44;;;9.70;100.00
79645;BME280;69117;47.148;18.954;2024-02-28T01:17:17;100405.50;;;9.69;100.00
79645;BME280;69117;47.148;18.954;2024-02-28T01:20:18;100396.47;;;9.62;100.00
79645;BME280;69117;47.148;18.954;2024-02-28T01:23:20;100401.88;;;9.60;100.00
79645;BME280;69117;47.148;18.954;2024-02-28T01:26:22;100406.47;;;9.58;100.00
79645;BME280;69117;47.148;18.954;2024-02-28T01:29:23;100401.34;;;9.57;100.00
79645;BME280;69117;47.148;18.954;2024-02-28T01:32:25;100417.44;;;9.54;100.00
79645;BME280;69117;47.148;18.954;2024-02-28T01:35:27;100419.09;;;9.55;100.00
79645;BME280;69117;47.148;18.954;2024-02-28T01:38:28;100415.19;;;9.59;100.00
79645;BME280;69117;47.148;18.954;2024-02-28T01:41:30;100415.34;;;9.57;100.00
79645;BME280;69117;47.148;18.954;2024-02-28T01:44:43;100407.16;;;9.51;100.00
79645;BME280;69117;47.148;18.954;2024-02-28T01:47:45;100413.97;;;9.53;100.00
79645;BME280;69117;47.148;18.954;2024-02-28T01:50:47;100401.31;;;9.47;100.00
79645;BME280;69117;47.148;18.954;2024-02-28T01:53:51;100401.06;;;9.50;100.00
79645;BME280;69117;47.148;18.954;2024-02-28T01:56:54;100407.00;;;9.52;100.00
79645;BME280;69117;47.148;18.954;2024-02-28T01:59:55;100413.81;;;9.55;100.00
79645;BME280;69117;47.148;18.954;2024-02-28T02:02:59;100413.09;;;9.53;100.00
79645;BME280;69117;47.148;18.954;2024-02-28T02:06:02;100413.09;;;9.53;100.00
79645;BME280;69117;47.148;18.954;2024-02-28T02:09:04;100414.91;;;9.52;100.00
79645;BME280;69117;47.148;18.954;2024-02-28T02:12:06;100407.72;;;9.54;100.00
79645;BME280;69117;47.148;18.954;2024-02-28T02:15:08;100422.44;;;9.57;100.00
79645;BME280;69117;47.148;18.954;2024-02-28T02:18:10;100424.25;;;9.56;100.00
79645;BME280;69117;47.148;18.954;2024-02-28T02:21:16;100426.59;;;9.59;100.00
79645;BME280;69117;47.148;18.954;2024-02-28T02:24:18;100418.53;;;9.61;100.00
79645;BME280;69117;47.148;18.954;2024-02-28T02:27:20;100418.00;;;9.57;100.00
79645;BME280;69117;47.148;18.954;2024-02-28T02:30:22;100431.03;;;9.59;100.00
79645;BME280;69117;47.148;18.954;2024-02-28T02:33:24;100419.25;;;9.53;100.00
79645;BME280;69117;47.148;18.954;2024-02-28T02:36:25;100419.50;;;9.50;100.00
79645;BME280;69117;47.148;18.954;2024-02-28T02:39:27;100416.44;;;9.45;100.00
79645;BME280;69117;47.148;18.954;2024-02-28T02:42:29;100424.91;;;9.49;100.00
79645;BME280;69117;47.148;18.954;2024-02-28T02:45:30;100427.44;;;9.50;100.00
79645;BME280;69117;47.148;18.954;2024-02-28T02:48:32;100423.81;;;9.51;100.00
79645;BME280;69117;47.148;18.954;2024-02-28T02:51:34;100428.53;;;9.48;100.00
79645;BME280;69117;47.148;18.954;2024-02-28T02:54:36;100428.91;;;9.43;100.00
79645;BME280;69117;47.148;18.954;2024-02-28T02:57:39;100435.88;;;9.44;100.00
79645;BME280;69117;47.148;18.954;2024-02-28T03:00:41;100431.69;;;9.42;100.00
79645;BME280;69117;47.148;18.954;2024-02-28T03:03:43;100439.56;;;9.32;100.00
79645;BME280;69117;47.148;18.954;2024-02-28T03:06:44;100448.44;;;9.31;100.00
79645;BME280;69117;47.148;18.954;2024-02-28T03:09:46;100461.44;;;9.23;100.00
79645;BME280;69117;47.148;18.954;2024-02-28T03:12:48;100453.16;;;9.27;100.00
79645;BME280;69117;47.148;18.954;2024-02-28T03:15:50;100450.00;;;9.33;100.00
79645;BME280;69117;47.148;18.954;2024-02-28T03:18:51;100464.44;;;9.39;100.00
79645;BME280;69117;47.148;18.954;2024-02-28T03:21:53;100462.50;;;9.41;100.00
79645;BME280;69117;47.148;18.954;2024-02-28T03:24:55;100459.16;;;9.39;100.00
79645;BME280;69117;47.148;18.954;2024-02-28T03:27:58;100466.25;;;9.38;100.00
79645;BME280;69117;47.148;18.954;2024-02-28T03:31:00;100460.16;;;9.38;100.00
79645;BME280;69117;47.148;18.954;2024-02-28T03:34:02;100464.72;;;9.36;100.00
79645;BME280;69117;47.148;18.954;2024-02-28T03:37:04;100459.00;;;9.31;100.00
79645;BME280;69117;47.148;18.954;2024-02-28T03:40:06;100465.50;;;9.27;100.00
79645;BME280;69117;47.148;18.954;2024-02-28T03:43:08;100457.16;;;9.22;100.00
79645;BME280;69117;47.148;18.954;2024-02-28T03:46:10;100460.88;;;9.19;100.00
79645;BME280;69117;47.148;18.954;2024-02-28T03:49:11;100456.97;;;9.13;100.00
79645;BME280;69117;47.148;18.954;2024-02-28T03:52:13;100452.13;;;9.09;100.00
79645;BME280;69117;47.148;18.954;2024-02-28T03:55:15;100466.84;;;9.11;100.00
79645;BME280;69117;47.148;18.954;2024-02-28T03:58:17;100463.63;;;9.08;100.00
79645;BME280;69117;47.148;18.954;2024-02-28T04:01:19;100461.84;;;9.08;100.00
79645;BME280;69117;47.148;18.954;2024-02-28T04:04:21;100464.72;;;9.05;100.00
79645;BME280;69117;47.148;18.954;2024-02-28T04:07:23;100469.28;;;9.03;100.00
79645;BME280;69117;47.148;18.954;2024-02-28T04:10:25;100473.19;;;9.09;100.00
79645;BME280;69117;47.148;18.954;2024-02-28T04:13:26;100493.84;;;9.04;100.00
79645;BME280;69117;47.148;18.954;2024-02-28T04:16:28;100502.16;;;8.99;100.00
79645;BME280;69117;47.148;18.954;2024-02-28T04:19:33;100491.59;;;8.99;100.00
79645;BME280;69117;47.148;18.954;2024-02-28T04:22:38;100503.25;;;8.97;100.00
79645;BME280;69117;47.148;18.954;2024-02-28T04:25:40;100506.19;;;9.03;100.00
79645;BME280;69117;47.148;18.954;2024-02-28T04:28:42;100512.81;;;8.98;100.00
79645;BME280;69117;47.148;18.954;2024-02-28T04:31:44;100506.66;;;8.87;100.00
79645;BME280;69117;47.148;18.954;2024-02-28T04:34:46;100502.22;;;8.88;100.00
79645;BME280;69117;47.148;18.954;2024-02-28T04:37:47;100501.94;;;8.91;100.00
79645;BME280;69117;47.148;18.954;2024-02-28T04:40:49;100508.63;;;8.95;100.00
79645;BME280;69117;47.148;18.954;2024-02-28T04:43:51;100514.72;;;8.95;100.00
79645;BME280;69117;47.148;18.954;2024-02-28T04:46:53;100525.25;;;8.95;100.00
79645;BME280;69117;47.148;18.954;2024-02-28T04:49:55;100521.53;;;8.98;100.00
79645;BME280;69117;47.148;18.954;2024-02-28T04:52:57;100518.06;;;8.98;100.00
79645;BME280;69117;47.148;18.954;2024-02-28T04:55:59;100512.34;;;8.92;100.00
79645;BME280;69117;47.148;18.954;2024-02-28T04:59:01;100515.59;;;8.96;100.00
79645;BME280;69117;47.148;18.954;2024-02-28T05:02:03;100499.31;;;8.91;100.00
79645;BME280;69117;47.148;18.954;2024-02-28T05:05:05;100509.34;;;8.97;100.00
79645;BME280;69117;47.148;18.954;2024-02-28T05:08:09;100519.41;;;8.92;100.00
79645;BME280;69117;47.148;18.954;2024-02-28T05:11:11;100520.91;;;8.85;100.00
79645;BME280;69117;47.148;18.954;2024-02-28T05:14:13;100518.38;;;8.83;100.00
79645;BME280;69117;47.148;18.954;2024-02-28T05:17:14;100529.13;;;8.70;100.00
79645;BME280;69117;47.148;18.954;2024-02-28T05:20:16;100523.84;;;8.70;100.00
79645;BME280;69117;47.148;18.954;2024-02-28T05:23:18;100521.22;;;8.70;100.00
79645;BME280;69117;47.148;18.954;2024-02-28T05:26:19;100514.66;;;8.65;100.00
79645;BME280;69117;47.148;18.954;2024-02-28T05:29:21;100522.97;;;8.60;100.00
79645;BME280;69117;47.148;18.954;2024-02-28T05:32:23;100526.47;;;8.49;100.00
79645;BME280;69117;47.148;18.954;2024-02-28T05:35:24;100518.00;;;8.35;100.00
79645;BME280;69117;47.148;18.954;2024-02-28T05:38:26;100535.66;;;8.23;100.00
79645;BME280;69117;47.148;18.954;2024-02-28T05:41:28;100533.06;;;8.12;100.00
79645;BME280;69117;47.148;18.954;2024-02-28T05:44:30;100527.72;;;8.02;100.00
79645;BME280;69117;47.148;18.954;2024-02-28T05:47:32;100529.16;;;7.95;100.00
79645;BME280;69117;47.148;18.954;2024-02-28T05:50:35;100531.44;;;7.88;100.00
79645;BME280;69117;47.148;18.954;2024-02-28T05:53:36;100527.50;;;7.83;100.00
79645;BME280;69117;47.148;18.954;2024-02-28T05:56:39;100539.91;;;7.80;100.00
79645;BME280;69117;47.148;18.954;2024-02-28T05:59:41;100536.00;;;7.75;100.00
79645;BME280;69117;47.148;18.954;2024-02-28T06:02:43;100535.16;;;7.74;100.00
79645;BME280;69117;47.148;18.954;2024-02-28T06:05:44;100547.13;;;7.78;100.00
79645;BME280;69117;47.148;18.954;2024-02-28T06:08:46;100552.63;;;7.75;100.00
79645;BME280;69117;47.148;18.954;2024-02-28T06:11:48;100548.44;;;7.73;100.00
79645;BME280;69117;47.148;18.954;2024-02-28T06:14:49;100548.44;;;7.73;100.00
79645;BME280;69117;47.148;18.954;2024-02-28T06:17:51;100558.22;;;7.71;100.00
79645;BME280;69117;47.148;18.954;2024-02-28T06:20:54;100563.84;;;7.77;100.00
79645;BME280;69117;47.148;18.954;2024-02-28T06:23:58;100557.63;;;7.78;100.00
79645;BME280;69117;47.148;18.954;2024-02-28T06:26:59;100556.31;;;7.84;100.00
79645;BME280;69117;47.148;18.954;2024-02-28T06:30:01;100559.63;;;7.86;100.00
79645;BME280;69117;47.148;18.954;2024-02-28T06:33:04;100572.53;;;7.89;100.00
79645;BME280;69117;47.148;18.954;2024-02-28T06:36:06;100585.84;;;7.88;100.00
79645;BME280;69117;47.148;18.954;2024-02-28T06:39:08;100595.16;;;7.92;100.00
79645;BME280;69117;47.148;18.954;2024-02-28T06:42:09;100598.97;;;7.99;100.00
79645;BME280;69117;47.148;18.954;2024-02-28T06:45:11;100606.84;;;8.10;100.00
79645;BME280;69117;47.148;18.954;2024-02-28T06:48:13;100603.72;;;8.16;100.00
79645;BME280;69117;47.148;18.954;2024-02-28T06:51:16;100601.47;;;8.23;100.00
79645;BME280;69117;47.148;18.954;2024-02-28T06:54:20;100607.38;;;8.36;100.00
79645;BME280;69117;47.148;18.954;2024-02-28T06:57:22;100605.47;;;8.49;100.00
79645;BME280;69117;47.148;18.954;2024-02-28T07:00:24;100608.38;;;8.67;100.00
79645;BME280;69117;47.148;18.954;2024-02-28T07:03:26;100602.94;;;8.80;100.00
79645;BME280;69117;47.148;18.954;2024-02-28T07:06:28;100607.09;;;8.94;100.00
79645;BME280;69117;47.148;18.954;2024-02-28T07:09:30;100601.50;;;9.08;100.00
79645;BME280;69117;47.148;18.954;2024-02-28T07:12:34;100611.69;;;9.23;100.00
79645;BME280;69117;47.148;18.954;2024-02-28T07:15:36;100615.00;;;9.36;100.00
79645;BME280;69117;47.148;18.954;2024-02-28T07:18:37;100624.22;;;9.51;100.00
79645;BME280;69117;47.148;18.954;2024-02-28T07:21:39;100624.03;;;9.74;100.00
79645;BME280;69117;47.148;18.954;2024-02-28T07:24:41;100633.00;;;9.92;100.00
79645;BME280;69117;47.148;18.954;2024-02-28T07:27:43;100632.09;;;10.13;100.00
79645;BME280;69117;47.148;18.954;2024-02-28T07:30:44;100633.72;;;10.35;100.00
79645;BME280;69117;47.148;18.954;2024-02-28T07:33:47;100634.75;;;10.63;100.00
79645;BME280;69117;47.148;18.954;2024-02-28T07:36:49;100637.25;;;10.93;100.00
79645;BME280;69117;47.148;18.954;2024-02-28T07:39:51;100637.50;;;11.19;100.00
79645;BME280;69117;47.148;18.954;2024-02-28T07:42:54;100639.84;;;11.42;100.00
79645;BME280;69117;47.148;18.954;2024-02-28T07:45:56;100644.50;;;11.67;100.00
79645;BME280;69117;47.148;18.954;2024-02-28T07:48:57;100645.06;;;11.71;100.00
79645;BME280;69117;47.148;18.954;2024-02-28T07:51:59;100650.22;;;11.63;100.00
79645;BME280;69117;47.148;18.954;2024-02-28T07:55:02;100656.78;;;12.06;100.00
79645;BME280;69117;47.148;18.954;2024-02-28T07:58:04;100654.31;;;12.22;100.00
79645;BME280;69117;47.148;18.954;2024-02-28T08:01:07;100653.03;;;12.54;100.00
79645;BME280;69117;47.148;18.954;2024-02-28T08:04:09;100648.38;;;12.83;100.00
79645;BME280;69117;47.148;18.954;2024-02-28T08:07:11;100651.16;;;13.00;100.00
79645;BME280;69117;47.148;18.954;2024-02-28T08:10:12;100642.66;;;13.14;100.00
79645;BME280;69117;47.148;18.954;2024-02-28T08:13:15;100655.91;;;13.14;100.00
79645;BME280;69117;47.148;18.954;2024-02-28T08:16:17;100657.88;;;13.12;100.00
79645;BME280;69117;47.148;18.954;2024-02-28T08:19:19;100662.94;;;13.23;100.00
79645;BME280;69117;47.148;18.954;2024-02-28T08:22:20;100667.28;;;12.53;100.00
79645;BME280;69117;47.148;18.954;2024-02-28T08:25:22;100669.31;;;13.13;100.00
79645;BME280;69117;47.148;18.954;2024-02-28T08:28:24;100665.06;;;13.56;100.00
79645;BME280;69117;47.148;18.954;2024-02-28T08:31:26;100667.53;;;13.57;100.00
79645;BME280;69117;47.148;18.954;2024-02-28T08:34:27;100665.69;;;13.58;100.00
79645;BME280;69117;47.148;18.954;2024-02-28T08:37:29;100667.94;;;13.70;100.00
79645;BME280;69117;47.148;18.954;2024-02-28T08:40:31;100670.50;;;14.14;100.00
79645;BME280;69117;47.148;18.954;2024-02-28T08:43:37;100669.75;;;13.96;100.00
79645;BME280;69117;47.148;18.954;2024-02-28T08:46:39;100679.47;;;14.13;100.00
79645;BME280;69117;47.148;18.954;2024-02-28T08:49:40;100669.88;;;13.86;100.00
79645;BME280;69117;47.148;18.954;2024-02-28T08:52:42;100675.31;;;14.19;100.00
79645;BME280;69117;47.148;18.954;2024-02-28T08:55:44;100672.16;;;14.15;100.00
79645;BME280;69117;47.148;18.954;2024-02-28T08:58:45;100672.28;;;14.48;100.00
79645;BME280;69117;47.148;18.954;2024-02-28T09:01:48;100672.53;;;14.79;100.00
79645;BME280;69117;47.148;18.954;2024-02-28T09:04:50;100676.22;;;14.86;100.00
79645;BME280;69117;47.148;18.954;2024-02-28T09:07:53;100678.03;;;15.19;100.00
79645;BME280;69117;47.148;18.954;2024-02-28T09:10:56;100676.88;;;15.21;100.00
79645;BME280;69117;47.148;18.954;2024-02-28T09:13:59;100680.53;;;15.53;100.00
79645;BME280;69117;47.148;18.954;2024-02-28T09:17:01;100678.38;;;15.56;100.00
79645;BME280;69117;47.148;18.954;2024-02-28T09:20:05;100680.47;;;15.94;100.00
79645;BME280;69117;47.148;18.954;2024-02-28T09:23:07;100675.69;;;15.65;100.00
79645;BME280;69117;47.148;18.954;2024-02-28T09:26:09;100677.41;;;15.17;100.00
79645;BME280;69117;47.148;18.954;2024-02-28T09:29:11;100675.84;;;15.63;100.00
79645;BME280;69117;47.148;18.954;2024-02-28T09:32:13;100681.00;;;15.89;100.00
79645;BME280;69117;47.148;18.954;2024-02-28T09:35:16;100673.53;;;14.78;100.00
79645;BME280;69117;47.148;18.954;2024-02-28T09:38:18;100676.41;;;15.26;100.00
79645;BME280;69117;47.148;18.954;2024-02-28T09:41:20;100682.78;;;15.97;100.00
79645;BME280;69117;47.148;18.954;2024-02-28T09:44:23;100692.66;;;16.27;100.00
79645;BME280;69117;47.148;18.954;2024-02-28T09:47:25;100696.00;;;16.61;100.00
79645;BME280;69117;47.148;18.954;2024-02-28T09:50:27;100700.78;;;16.42;100.00
79645;BME280;69117;47.148;18.954;2024-02-28T09:53:29;100697.19;;;17.12;100.00
79645;BME280;69117;47.148;18.954;2024-02-28T09:56:33;100696.38;;;17.12;100.00
79645;BME280;69117;47.148;18.954;2024-02-28T09:59:35;100695.66;;;17.41;100.00
79645;BME280;69117;47.148;18.954;2024-02-28T10:02:53;100698.13;;;17.43;100.00
79645;BME280;69117;47.148;18.954;2024-02-28T10:05:57;100697.19;;;17.35;100.00
79645;BME280;69117;47.148;18.954;2024-02-28T10:08:59;100699.06;;;17.50;100.00
79645;BME280;69117;47.148;18.954;2024-02-28T10:12:02;100704.69;;;17.93;100.00
79645;BME280;69117;47.148;18.954;2024-02-28T10:15:04;100701.56;;;18.04;100.00
79645;BME280;69117;47.148;18.954;2024-02-28T10:18:06;100698.28;;;17.64;100.00
79645;BME280;69117;47.148;18.954;2024-02-28T10:21:08;100704.50;;;17.79;100.00
79645;BME280;69117;47.148;18.954;2024-02-28T10:24:15;100705.81;;;17.98;100.00
79645;BME280;69117;47.148;18.954;2024-02-28T10:27:17;100711.22;;;18.05;100.00
79645;BME280;69117;47.148;18.954;2024-02-28T10:30:20;100710.31;;;17.60;100.00
79645;BME280;69117;47.148;18.954;2024-02-28T10:33:26;100711.22;;;18.35;100.00
79645;BME280;69117;47.148;18.954;2024-02-28T10:36:32;100708.81;;;18.40;100.00
79645;BME280;69117;47.148;18.954;2024-02-28T10:39:34;100704.72;;;18.59;100.00
79645;BME280;69117;47.148;18.954;2024-02-28T10:42:37;100709.88;;;18.96;100.00
79645;BME280;69117;47.148;18.954;2024-02-28T10:45:42;100708.38;;;19.09;100.00
79645;BME280;69117;47.148;18.954;2024-02-28T10:49:05;100699.94;;;18.90;100.00
79645;BME280;69117;47.148;18.954;2024-02-28T10:52:11;100702.56;;;19.05;100.00
79645;BME280;69117;47.148;18.954;2024-02-28T10:55:14;100703.97;;;19.01;100.00
79645;BME280;69117;47.148;18.954;2024-02-28T10:58:18;100709.28;;;17.84;100.00
79645;BME280;69117;47.148;18.954;2024-02-28T11:01:21;100704.22;;;19.28;100.00
79645;BME280;69117;47.148;18.954;2024-02-28T11:04:23;100708.31;;;20.08;100.00
79645;BME280;69117;47.148;18.954;2024-02-28T11:07:26;100711.44;;;20.11;100.00
79645;BME280;69117;47.148;18.954;2024-02-28T11:10:54;100709.13;;;20.43;100.00
79645;BME280;69117;47.148;18.954;2024-02-28T11:13:57;100706.59;;;20.83;100.00
79645;BME280;69117;47.148;18.954;2024-02-28T11:17:00;100707.63;;;20.82;100.00
79645;BME280;69117;47.148;18.954;2024-02-28T11:20:11;100707.91;;;21.60;100.00
79645;BME280;69117;47.148;18.954;2024-02-28T11:23:13;100716.94;;;20.99;100.00
79645;BME280;69117;47.148;18.954;2024-02-28T11:26:16;100704.19;;;21.21;100.00
79645;BME280;69117;47.148;18.954;2024-02-28T11:29:30;100706.06;;;21.54;100.00
79645;BME280;69117;47.148;18.954;2024-02-28T11:32:32;100709.97;;;21.91;100.00
79645;BME280;69117;47.148;18.954;2024-02-28T11:35:35;100706.47;;;21.51;100.00
79645;BME280;69117;47.148;18.954;2024-02-28T11:38:36;100705.00;;;21.15;100.00
79645;BME280;69117;47.148;18.954;2024-02-28T11:41:39;100705.94;;;20.74;100.00
79645;BME280;69117;47.148;18.954;2024-02-28T11:44:41;100705.03;;;21.42;100.00
79645;BME280;69117;47.148;18.954;2024-02-28T11:47:44;100696.53;;;21.45;100.00
79645;BME280;69117;47.148;18.954;2024-02-28T11:50:46;100698.00;;;21.67;100.00
79645;BME280;69117;47.148;18.954;2024-02-28T11:53:47;100693.22;;;21.16;100.00
79645;BME280;69117;47.148;18.954;2024-02-28T11:56:49;100688.03;;;21.81;100.00
79645;BME280;69117;47.148;18.954;2024-02-28T11:59:51;100690.06;;;21.92;100.00
79645;BME280;69117;47.148;18.954;2024-02-28T12:03:04;100689.00;;;22.07;100.00
79645;BME280;69117;47.148;18.954;2024-02-28T12:06:06;100687.44;;;21.79;100.00
79645;BME280;69117;47.148;18.954;2024-02-28T12:09:10;100684.78;;;22.37;96.99
79645;BME280;69117;47.148;18.954;2024-02-28T12:12:18;100675.84;;;21.72;100.00
79645;BME280;69117;47.148;18.954;2024-02-28T12:15:20;100678.34;;;21.67;97.29
79645;BME280;69117;47.148;18.954;2024-02-28T12:18:22;100675.84;;;21.12;100.00
79645;BME280;69117;47.148;18.954;2024-02-28T12:21:24;100684.75;;;20.45;100.00
79645;BME280;69117;47.148;18.954;2024-02-28T12:24:26;100671.50;;;21.18;100.00
79645;BME280;69117;47.148;18.954;2024-02-28T12:27:28;100666.75;;;21.20;100.00
79645;BME280;69117;47.148;18.954;2024-02-28T12:30:29;100671.53;;;21.38;100.00
79645;BME280;69117;47.148;18.954;2024-02-28T12:33:31;100674.81;;;21.07;100.00
79645;BME280;69117;47.148;18.954;2024-02-28T12:36:34;100669.00;;;20.28;100.00
79645;BME280;69117;47.148;18.954;2024-02-28T12:39:35;100669.56;;;20.65;100.00
79645;BME280;69117;47.148;18.954;2024-02-28T12:42:37;100666.34;;;21.10;100.00
79645;BME280;69117;47.148;18.954;2024-02-28T12:45:41;100672.16;;;21.40;100.00
79645;BME280;69117;47.148;18.954;2024-02-28T12:48:44;100665.94;;;21.06;100.00
79645;BME280;69117;47.148;18.954;2024-02-28T12:51:48;100668.22;;;21.36;98.42
79645;BME280;69117;47.148;18.954;2024-02-28T12:54:51;100659.13;;;19.59;100.00
79645;BME280;69117;47.148;18.954;2024-02-28T12:57:52;100666.91;;;20.24;100.00
79645;BME280;69117;47.148;18.954;2024-02-28T13:00:54;100655.97;;;20.93;100.00
79645;BME280;69117;47.148;18.954;2024-02-28T13:03:56;100661.19;;;21.28;99.61
79645;BME280;69117;47.148;18.954;2024-02-28T13:06:58;100662.63;;;21.31;98.10
79645;BME280;69117;47.148;18.954;2024-02-28T13:10:00;100651.97;;;19.66;100.00
79645;BME280;69117;47.148;18.954;2024-02-28T13:13:02;100653.81;;;19.66;100.00
79645;BME280;69117;47.148;18.954;2024-02-28T13:16:04;100655.16;;;20.86;100.00
79645;BME280;69117;47.148;18.954;2024-02-28T13:19:06;100650.66;;;21.40;97.61
79645;BME280;69117;47.148;18.954;2024-02-28T13:22:08;100652.63;;;21.91;92.69
79645;BME280;69117;47.148;18.954;2024-02-28T13:25:11;100651.47;;;21.54;93.69
79645;BME280;69117;47.148;18.954;2024-02-28T13:28:13;100651.31;;;22.13;92.18
79645;BME280;69117;47.148;18.954;2024-02-28T13:31:15;100651.66;;;22.37;89.71
79645;BME280;69117;47.148;18.954;2024-02-28T13:34:17;100637.78;;;22.33;87.22
79645;BME280;69117;47.148;18.954;2024-02-28T13:37:19;100643.63;;;21.52;87.26
79645;BME280;69117;47.148;18.954;2024-02-28T13:40:21;100640.44;;;21.88;88.41
79645;BME280;69117;47.148;18.954;2024-02-28T13:43:23;100637.94;;;21.87;88.70
79645;BME280;69117;47.148;18.954;2024-02-28T13:46:24;100643.88;;;22.09;87.32
79645;BME280;69117;47.148;18.954;2024-02-28T13:49:26;100643.78;;;21.57;89.64
79645;BME280;69117;47.148;18.954;2024-02-28T13:52:28;100634.91;;;21.17;95.70
79645;BME280;69117;47.148;18.954;2024-02-28T13:55:29;100637.69;;;19.94;98.55
79645;BME280;69117;47.148;18.954;2024-02-28T13:58:31;100648.94;;;20.18;96.88
79645;BME280;69117;47.148;18.954;2024-02-28T14:01:44;100637.53;;;18.17;100.00
79645;BME280;69117;47.148;18.954;2024-02-28T14:04:47;100632.97;;;18.69;100.00
79645;BME280;69117;47.148;18.954;2024-02-28T14:07:50;100635.63;;;19.33;100.00
79645;BME280;69117;47.148;18.954;2024-02-28T14:10:52;100641.00;;;19.61;100.00
79645;BME280;69117;47.148;18.954;2024-02-28T14:13:54;100632.00;;;19.76;100.00
79645;BME280;69117;47.148;18.954;2024-02-28T14:16:55;100630.56;;;19.45;100.00
79645;BME280;69117;47.148;18.954;2024-02-28T14:19:57;100637.41;;;19.54;100.00
79645;BME280;69117;47.148;18.954;2024-02-28T14:22:59;100630.94;;;19.42;100.00
79645;BME280;69117;47.148;18.954;2024-02-28T14:26:01;100636.59;;;19.26;100.00
79645;BME280;69117;47.148;18.954;2024-02-28T14:29:03;100635.25;;;18.87;100.00
79645;BME280;69117;47.148;18.954;2024-02-28T14:32:06;100634.78;;;19.05;100.00
79645;BME280;69117;47.148;18.954;2024-02-28T14:35:09;100640.81;;;18.70;100.00
79645;BME280;69117;47.148;18.954;2024-02-28T14:38:11;100631.09;;;18.84;100.00
79645;BME280;69117;47.148;18.954;2024-02-28T14:41:13;100640.03;;;18.91;100.00
79645;BME280;69117;47.148;18.954;2024-02-28T14:44:15;100632.50;;;18.80;100.00
79645;BME280;69117;47.148;18.954;2024-02-28T14:47:18;100633.19;;;18.67;100.00
79645;BME280;69117;47.148;18.954;2024-02-28T14:50:19;100635.97;;;18.59;100.00
79645;BME280;69117;47.148;18.954;2024-02-28T14:53:22;100637.66;;;18.45;100.00
79645;BME280;69117;47.148;18.954;2024-02-28T14:56:23;100644.03;;;18.44;100.00
79645;BME280;69117;47.148;18.954;2024-02-28T14:59:25;100633.81;;;18.33;100.00
79645;BME280;69117;47.148;18.954;2024-02-28T15:02:27;100638.44;;;18.24;100.00
79645;BME280;69117;47.148;18.954;2024-02-28T15:05:28;100636.19;;;18.06;100.00
79645;BME280;69117;47.148;18.954;2024-02-28T15:08:30;100642.53;;;17.91;100.00
79645;BME280;69117;47.148;18.954;2024-02-28T15:11:31;100631.31;;;17.80;100.00
79645;BME280;69117;47.148;18.954;2024-02-28T15:14:33;100633.66;;;17.75;100.00
79645;BME280;69117;47.148;18.954;2024-02-28T15:17:35;100634.16;;;17.64;100.00
79645;BME280;69117;47.148;18.954;2024-02-28T15:20:37;100624.28;;;17.50;100.00
79645;BME280;69117;47.148;18.954;2024-02-28T15:23:39;100630.16;;;17.45;100.00
79645;BME280;69117;47.148;18.954;2024-02-28T15:26:41;100630.31;;;17.29;100.00
79645;BME280;69117;47.148;18.954;2024-02-28T15:29:47;100628.75;;;17.20;100.00
79645;BME280;69117;47.148;18.954;2024-02-28T15:32:49;100631.38;;;17.05;100.00
79645;BME280;69117;47.148;18.954;2024-02-28T15:35:50;100634.81;;;16.90;100.00